Aviation Digital Data Service (ADDS)

Output produced by METARs form (0804 UTC 20 March 2019)
found at http://www.aviationweather.gov/metar/data/
 
Forecast for: WALL (SEPINGGAN , ID)
Text: TAF WALL 200500Z 2006/2112 03005KT 9000 FEW020
Forecast period: 0600 UTC 20 March 2019 to 1200 UTC 21 March 2019
Forecast type: FROM: standard forecast or significant change
Winds: from the NNE (30 degrees) at 6 MPH (5 knots; 2.6 m/s)
Visibility: 6 miles (9 km)
Ceiling: at least 12,000 feet AGL
Clouds: few clouds at 2000 feet AGL
Weather: no significant weather forecast for this period